createdAt,value
2023-02-16T00:00:24.874Z,84.28
2023-02-16T00:03:16.164Z,92.55
2023-02-16T00:05:43.976Z,86.35
2023-02-16T00:08:12.085Z,82.45
2023-02-16T00:10:41.094Z,73.22
2023-02-16T00:13:47.219Z,83.25
2023-02-16T00:16:23.433Z,83.70
2023-02-16T00:18:53.314Z,78.93
2023-02-16T00:21:21.332Z,94.22
2023-02-16T00:23:49.578Z,80.72
2023-02-16T00:26:22.702Z,79.15
2023-02-16T00:28:59.029Z,81.97
2023-02-16T00:31:32.040Z,83.15
2023-02-16T00:34:23.525Z,76.95
2023-02-16T00:36:51.382Z,82.63
2023-02-16T00:39:19.481Z,75.55
2023-02-16T00:41:51.367Z,77.57
2023-02-16T00:44:42.427Z,83.45
2023-02-16T00:47:30.501Z,86.32
2023-02-16T00:49:59.406Z,71.80
2023-02-16T00:52:32.531Z,78.72
2023-02-16T00:55:03.954Z,88.53
2023-02-16T00:57:38.553Z,86.78
2023-02-16T01:00:12.638Z,75.50
2023-02-16T01:05:09.260Z,79.05
2023-02-16T01:07:55.757Z,83.47
2023-02-16T01:10:43.709Z,75.53
2023-02-16T01:13:11.881Z,86.35
2023-02-16T01:15:40.227Z,83.38
2023-02-16T01:18:08.720Z,81.25
2023-02-16T01:20:36.857Z,77.55
2023-02-16T01:23:04.670Z,85.07
2023-02-16T01:25:34.035Z,81.75
2023-02-16T01:28:01.760Z,75.95
2023-02-16T01:30:30.240Z,85.18
2023-02-16T01:32:58.070Z,75.60
2023-02-16T01:35:33.396Z,85.38
2023-02-16T01:38:01.206Z,74.43
2023-02-16T01:40:35.379Z,74.03
2023-02-16T01:43:30.858Z,77.45
2023-02-16T01:46:25.806Z,76.97
2023-02-16T01:48:53.726Z,72.35
2023-02-16T01:51:27.613Z,71.55
2023-02-16T01:54:05.958Z,74.40
2023-02-16T01:56:41.963Z,75.05
2023-02-16T01:59:34.539Z,74.05
2023-02-16T02:02:05.081Z,81.80
2023-02-16T02:05:19.742Z,71.95
2023-02-16T02:07:47.794Z,70.50
2023-02-16T02:10:24.407Z,75.55
2023-02-16T02:13:17.638Z,71.90
2023-02-16T02:15:45.556Z,67.15
2023-02-16T02:18:13.920Z,68.85
2023-02-16T02:21:28.404Z,68.35
2023-02-16T02:24:18.389Z,69.50
2023-02-16T02:26:57.951Z,70.47
2023-02-16T02:29:37.181Z,61.83
2023-02-16T02:32:19.910Z,74.22
2023-02-16T02:35:13.025Z,67.85
2023-02-16T02:38:05.684Z,71.28
2023-02-16T02:40:41.974Z,70.47
2023-02-16T02:43:50.566Z,72.30
2023-02-16T02:46:27.836Z,70.82
2023-02-16T02:48:55.755Z,59.22
2023-02-16T02:51:29.897Z,63.65
2023-02-16T02:54:42.436Z,63.28
2023-02-16T02:57:32.329Z,76.90
2023-02-16T03:00:27.479Z,71.55
2023-02-16T03:03:04.659Z,58.80
2023-02-16T03:05:35.628Z,68.82
2023-02-16T03:08:14.490Z,62.03
2023-02-16T03:11:06.398Z,62.75
2023-02-16T03:14:00.041Z,62.28
2023-02-16T03:16:39.688Z,69.75
2023-02-16T03:19:30.471Z,74.55
2023-02-16T03:22:18.610Z,71.53
2023-02-16T03:25:05.749Z,60.90
2023-02-16T03:27:58.148Z,65.85
2023-02-16T03:30:28.014Z,64.70
2023-02-16T03:32:56.079Z,73.70
2023-02-16T03:35:25.947Z,69.15
2023-02-16T03:37:53.672Z,59.70
2023-02-16T03:40:28.684Z,79.93
2023-02-16T03:42:59.516Z,64.95
2023-02-16T03:45:28.367Z,74.70
2023-02-16T03:47:56.217Z,65.70
2023-02-16T03:50:26.660Z,68.82
2023-02-16T03:53:08.408Z,64.90
2023-02-16T03:55:39.426Z,72.57
2023-02-16T03:58:09.502Z,68.35
2023-02-16T04:00:38.508Z,66.97
2023-02-16T04:03:07.337Z,60.13
2023-02-16T04:05:35.586Z,78.15
2023-02-16T04:08:03.548Z,77.97
2023-02-16T04:10:31.808Z,69.22
2023-02-16T04:12:59.861Z,74.95
2023-02-16T04:15:30.444Z,67.20
2023-02-16T04:17:58.788Z,70.30
2023-02-16T04:20:32.878Z,74.60
2023-02-16T04:25:30.211Z,70.22
2023-02-16T04:27:58.270Z,76.13
2023-02-16T04:30:29.892Z,79.25
2023-02-16T04:32:58.978Z,78.47
2023-02-16T04:35:27.510Z,75.68
2023-02-16T04:37:55.247Z,71.60
2023-02-16T04:40:23.484Z,76.35
2023-02-16T04:42:51.335Z,78.18
2023-02-16T04:45:19.519Z,72.47
2023-02-16T04:47:47.288Z,80.38
2023-02-16T04:50:15.297Z,82.65
2023-02-16T04:52:43.119Z,80.93
2023-02-16T04:55:11.252Z,95.00
2023-02-16T04:57:40.181Z,81.85
2023-02-16T05:00:12.030Z,84.38
2023-02-16T05:02:40.002Z,84.22
2023-02-16T05:05:08.615Z,87.28
2023-02-16T05:07:37.318Z,87.70
2023-02-16T05:10:06.647Z,81.30
2023-02-16T05:12:53.090Z,85.50
2023-02-16T05:15:21.510Z,91.05
2023-02-16T05:17:49.436Z,84.10
2023-02-16T05:20:18.091Z,93.15
2023-02-16T05:22:46.490Z,89.68
2023-02-16T05:25:15.092Z,78.15
2023-02-16T05:27:42.871Z,88.13
2023-02-16T05:30:11.832Z,96.70
2023-02-16T05:32:39.600Z,89.25
2023-02-16T05:35:08.064Z,92.00
2023-02-16T05:37:35.948Z,91.95
2023-02-16T05:40:04.414Z,94.93
2023-02-16T05:42:32.485Z,84.30
2023-02-16T05:45:00.659Z,83.55
2023-02-16T05:47:28.469Z,84.63
2023-02-16T05:49:56.660Z,80.57
2023-02-16T05:52:24.512Z,83.20
2023-02-16T05:54:52.718Z,90.10
2023-02-16T05:57:20.570Z,81.10
2023-02-16T05:59:48.660Z,80.75
2023-02-16T06:02:16.717Z,90.38
2023-02-16T06:04:45.012Z,83.13
2023-02-16T06:07:14.815Z,87.72
2023-02-16T06:09:43.428Z,83.22
2023-02-16T06:12:11.161Z,70.28
2023-02-16T06:14:39.211Z,77.35
2023-02-16T06:17:06.943Z,82.50
2023-02-16T06:19:35.087Z,84.70
2023-02-16T06:22:02.872Z,86.22
2023-02-16T06:24:31.324Z,83.10
2023-02-16T06:26:59.114Z,80.53
2023-02-16T06:29:27.541Z,83.78
2023-02-16T06:31:55.368Z,76.38
2023-02-16T06:34:23.905Z,72.35
2023-02-16T06:36:51.721Z,82.03
2023-02-16T06:39:19.912Z,82.90
2023-02-16T06:41:47.690Z,92.82
2023-02-16T06:44:16.780Z,79.25
2023-02-16T06:46:47.044Z,82.05
2023-02-16T06:49:20.328Z,88.25
2023-02-16T06:51:49.637Z,80.68
2023-02-16T06:54:18.298Z,87.07
2023-02-16T06:56:46.173Z,85.60
2023-02-16T06:59:14.199Z,90.93
2023-02-16T07:01:44.147Z,89.80
2023-02-16T07:04:13.879Z,85.55
2023-02-16T07:06:41.629Z,78.10
2023-02-16T07:09:11.677Z,82.47
2023-02-16T07:11:41.285Z,113.00
2023-02-16T07:14:09.654Z,90.40
2023-02-16T07:16:37.699Z,82.18
2023-02-16T07:19:07.054Z,96.60
2023-02-16T07:21:35.151Z,85.38
2023-02-16T07:24:03.910Z,71.00
2023-02-16T07:26:31.754Z,79.55
2023-02-16T07:28:59.897Z,83.40
2023-02-16T07:31:27.685Z,78.53
2023-02-16T07:33:55.804Z,79.63
2023-02-16T07:36:23.659Z,71.75
2023-02-16T07:38:51.936Z,81.38
2023-02-16T07:41:20.824Z,72.97
2023-02-16T07:43:48.938Z,73.68
2023-02-16T07:46:16.968Z,65.47
2023-02-16T07:48:49.026Z,67.85
2023-02-16T07:51:28.925Z,67.45
2023-02-16T07:53:58.251Z,61.55
2023-02-16T07:56:29.423Z,63.97
2023-02-16T07:58:59.981Z,68.75
2023-02-16T08:01:30.057Z,58.67
2023-02-16T08:03:58.581Z,62.78
2023-02-16T08:06:26.370Z,77.38
2023-02-16T08:08:54.459Z,62.70
2023-02-16T08:11:24.852Z,71.70
2023-02-16T08:13:52.973Z,58.03
2023-02-16T08:16:24.311Z,67.43
2023-02-16T08:18:53.263Z,60.42
2023-02-16T08:21:27.514Z,62.15
2023-02-16T08:23:59.739Z,66.35
2023-02-16T08:26:38.798Z,62.05
2023-02-16T08:29:10.365Z,74.82
2023-02-16T08:31:39.068Z,70.97
2023-02-16T08:34:08.022Z,61.90
2023-02-16T08:36:38.849Z,51.53
2023-02-16T08:39:19.208Z,67.00
2023-02-16T08:41:49.231Z,70.18
2023-02-16T08:44:19.073Z,74.90
2023-02-16T08:46:48.937Z,65.25
2023-02-16T08:49:18.917Z,83.85
2023-02-16T08:51:49.906Z,81.88
2023-02-16T08:54:20.955Z,72.22
2023-02-16T08:56:50.120Z,78.78
2023-02-16T08:59:20.933Z,76.63
2023-02-16T09:01:49.551Z,105.78
2023-02-16T09:04:20.157Z,126.32
2023-02-16T09:06:49.143Z,109.25
2023-02-16T09:09:18.237Z,130.07
2023-02-16T09:11:46.397Z,118.80
2023-02-16T09:14:17.402Z,116.30
2023-02-16T09:16:46.034Z,122.82
2023-02-16T09:19:17.558Z,134.55
2023-02-16T09:21:47.010Z,149.40
2023-02-16T09:24:16.266Z,147.90
2023-02-16T09:26:44.853Z,123.38
2023-02-16T09:29:14.179Z,154.60
2023-02-16T09:31:44.568Z,127.07
2023-02-16T09:34:18.938Z,122.85
2023-02-16T09:36:47.568Z,139.90
2023-02-16T09:39:19.507Z,132.45
2023-02-16T09:41:54.509Z,160.82
2023-02-16T09:44:34.770Z,150.48
2023-02-16T09:47:06.560Z,128.27
2023-02-16T09:49:45.410Z,138.45
2023-02-16T09:52:52.307Z,132.77
2023-02-16T09:55:22.883Z,134.35
2023-02-16T09:58:16.026Z,123.65
2023-02-16T10:00:52.250Z,131.37
2023-02-16T10:03:46.672Z,140.68
2023-02-16T10:06:18.672Z,136.57
2023-02-16T10:08:55.887Z,128.35
2023-02-16T10:11:49.086Z,112.78
2023-02-16T10:14:42.113Z,118.60
2023-02-16T10:17:24.481Z,122.88
2023-02-16T10:20:23.825Z,109.63
2023-02-16T10:23:01.634Z,116.55
2023-02-16T10:25:35.581Z,120.57
2023-02-16T10:28:39.151Z,124.90
2023-02-16T10:31:34.431Z,116.30
2023-02-16T10:34:14.783Z,112.78
2023-02-16T10:36:58.232Z,113.97
2023-02-16T10:39:57.933Z,109.15
2023-02-16T10:42:25.729Z,105.28
2023-02-16T10:45:27.347Z,118.47
2023-02-16T10:47:55.277Z,122.35
2023-02-16T10:51:04.001Z,110.80
2023-02-16T10:53:31.928Z,112.07
2023-02-16T10:56:00.763Z,110.65
2023-02-16T10:58:40.147Z,115.45
2023-02-16T11:01:20.545Z,123.78
2023-02-16T11:03:55.549Z,120.40
2023-02-16T11:06:25.989Z,122.53
2023-02-16T11:09:02.144Z,119.32
2023-02-16T11:11:42.155Z,112.72
2023-02-16T11:14:25.883Z,124.22
2023-02-16T11:17:16.983Z,114.78
2023-02-16T11:20:09.797Z,126.72
2023-02-16T11:22:39.665Z,114.68
2023-02-16T11:25:22.963Z,109.47
2023-02-16T11:27:51.387Z,113.55
2023-02-16T11:30:34.312Z,107.57
2023-02-16T11:33:18.033Z,111.30
2023-02-16T11:35:46.294Z,110.57
2023-02-16T11:38:37.733Z,113.75
2023-02-16T11:41:07.401Z,120.45
2023-02-16T11:43:38.377Z,107.85
2023-02-16T11:46:18.947Z,108.72
2023-02-16T11:48:47.847Z,110.07
2023-02-16T11:51:29.002Z,101.03
2023-02-16T11:54:08.485Z,123.78
2023-02-16T11:56:36.691Z,105.45
2023-02-16T11:59:17.202Z,110.95
2023-02-16T12:02:12.444Z,105.15
2023-02-16T12:04:59.493Z,110.15
2023-02-16T12:07:48.364Z,104.30
2023-02-16T12:10:29.086Z,111.15
2023-02-16T12:13:18.207Z,101.28
2023-02-16T12:16:22.016Z,115.40
2023-02-16T12:19:31.796Z,104.43
2023-02-16T12:22:19.034Z,99.18
2023-02-16T12:25:15.774Z,91.60
2023-02-16T12:27:56.115Z,97.70
2023-02-16T12:30:45.621Z,98.55
2023-02-16T12:33:38.289Z,102.93
2023-02-16T12:36:09.358Z,103.72
2023-02-16T12:38:46.572Z,93.45
2023-02-16T12:42:17.501Z,103.32
2023-02-16T12:44:53.212Z,103.57
2023-02-16T12:47:28.298Z,95.50
2023-02-16T12:50:22.568Z,111.75
2023-02-16T12:53:00.108Z,106.55
2023-02-16T12:55:37.150Z,101.22
2023-02-16T12:58:07.945Z,105.95
2023-02-16T13:00:52.396Z,103.70
2023-02-16T13:03:20.947Z,96.20
2023-02-16T13:06:04.535Z,103.90
2023-02-16T13:08:47.895Z,117.00
2023-02-16T13:11:24.864Z,118.25
2023-02-16T13:13:57.000Z,110.80
2023-02-16T13:16:38.030Z,107.05
2023-02-16T13:19:05.979Z,114.70
2023-02-16T13:21:51.568Z,115.50
2023-02-16T13:24:53.759Z,114.03
2023-02-16T13:27:59.226Z,117.65
2023-02-16T13:30:39.372Z,123.18
2023-02-16T13:33:19.777Z,127.07
2023-02-16T13:35:59.703Z,135.93
2023-02-16T13:38:46.960Z,120.55
2023-02-16T13:41:26.789Z,131.93
2023-02-16T13:44:04.185Z,128.48
2023-02-16T13:46:41.637Z,130.57
2023-02-16T13:49:33.162Z,121.03
2023-02-16T13:52:01.431Z,133.63
2023-02-16T13:54:31.611Z,132.93
2023-02-16T13:57:04.203Z,131.98
2023-02-16T13:59:36.103Z,136.68
2023-02-16T14:02:11.253Z,128.85
2023-02-16T14:04:39.357Z,126.07
2023-02-16T14:07:10.502Z,120.43
2023-02-16T14:09:38.573Z,128.10
2023-02-16T14:12:11.647Z,138.05
2023-02-16T14:14:55.649Z,126.87
2023-02-16T14:17:31.891Z,138.43
2023-02-16T14:20:09.206Z,138.25
2023-02-16T14:22:48.955Z,133.82
2023-02-16T14:25:38.616Z,131.95
2023-02-16T14:28:32.143Z,137.60
2023-02-16T14:31:03.898Z,133.95
2023-02-16T14:33:56.767Z,126.75
2023-02-16T14:36:27.222Z,137.68
2023-02-16T14:38:58.526Z,130.38
2023-02-16T14:41:32.587Z,139.93
2023-02-16T14:44:06.206Z,142.65
2023-02-16T14:46:42.558Z,134.27
2023-02-16T14:49:47.465Z,131.13
2023-02-16T14:52:49.326Z,150.05
2023-02-16T14:55:41.879Z,135.95
2023-02-16T14:58:13.100Z,132.90
2023-02-16T15:00:54.966Z,129.10
2023-02-16T15:03:26.118Z,127.72
2023-02-16T15:06:06.310Z,130.23
2023-02-16T15:08:38.194Z,137.73
2023-02-16T15:11:26.437Z,137.05
2023-02-16T15:13:55.396Z,135.38
2023-02-16T15:16:23.892Z,139.85
2023-02-16T15:18:55.391Z,146.32
2023-02-16T15:21:30.946Z,146.07
2023-02-16T15:24:01.356Z,140.80
2023-02-16T15:26:33.404Z,137.85
2023-02-16T15:29:13.917Z,139.90
2023-02-16T15:31:41.900Z,136.10
2023-02-16T15:34:15.688Z,136.90
2023-02-16T15:36:45.205Z,136.95
2023-02-16T15:39:18.488Z,132.68
2023-02-16T15:41:50.389Z,139.95
2023-02-16T15:44:29.546Z,154.57
2023-02-16T15:47:26.775Z,145.60
2023-02-16T15:49:54.884Z,147.73
2023-02-16T15:52:33.993Z,154.05
2023-02-16T15:55:11.190Z,160.75
2023-02-16T15:57:40.923Z,152.70
2023-02-16T16:00:23.375Z,154.02
2023-02-16T16:02:54.927Z,151.48
2023-02-16T16:05:36.484Z,152.50
2023-02-16T16:08:05.144Z,162.10
2023-02-16T16:10:41.226Z,165.80
2023-02-16T16:13:18.239Z,179.55
2023-02-16T16:15:49.242Z,164.82
2023-02-16T16:18:39.535Z,168.65
2023-02-16T16:21:25.357Z,167.25
2023-02-16T16:23:56.923Z,171.13
2023-02-16T16:26:26.942Z,179.48
2023-02-16T16:28:54.981Z,175.55
2023-02-16T16:31:23.073Z,172.10
2023-02-16T16:34:04.616Z,173.13
2023-02-16T16:36:56.257Z,179.15
2023-02-16T16:39:28.917Z,182.88
2023-02-16T16:41:56.963Z,186.90
2023-02-16T16:44:40.311Z,170.13
2023-02-16T16:47:12.935Z,187.93
2023-02-16T16:50:02.510Z,181.15
2023-02-16T16:52:36.616Z,189.73
2023-02-16T16:57:56.545Z,211.02
2023-02-16T17:00:26.863Z,195.65
2023-02-16T17:02:55.233Z,197.43
2023-02-16T17:05:23.144Z,207.35
2023-02-16T17:07:52.233Z,196.02
2023-02-16T17:10:22.431Z,206.23
2023-02-16T17:12:58.252Z,199.40
2023-02-16T17:15:33.930Z,204.50
2023-02-16T17:18:02.724Z,202.30
2023-02-16T17:20:30.832Z,203.73
2023-02-16T17:23:04.733Z,206.15
2023-02-16T17:25:34.690Z,197.27
2023-02-16T17:28:04.134Z,208.07
2023-02-16T17:30:32.806Z,208.13
2023-02-16T17:33:01.142Z,199.70
2023-02-16T17:35:30.811Z,208.25
2023-02-16T17:37:59.039Z,204.07
2023-02-16T17:40:26.999Z,205.57
2023-02-16T17:42:55.060Z,224.07
2023-02-16T17:45:23.105Z,217.27
2023-02-16T17:47:53.202Z,216.02
2023-02-16T17:50:21.374Z,213.98
2023-02-16T17:52:49.521Z,202.95
2023-02-16T17:55:17.406Z,210.38
2023-02-16T17:57:45.518Z,207.63
2023-02-16T18:00:18.560Z,226.68
2023-02-16T18:02:47.869Z,211.85
2023-02-16T18:05:15.752Z,226.90
2023-02-16T18:07:43.839Z,236.57
2023-02-16T18:10:17.570Z,232.02
2023-02-16T18:12:45.766Z,227.75
2023-02-16T18:15:13.512Z,216.70
2023-02-16T18:17:41.659Z,217.00
2023-02-16T18:20:12.814Z,214.77
2023-02-16T18:22:40.819Z,205.35
2023-02-16T18:25:09.349Z,219.57
2023-02-16T18:27:37.505Z,217.15
2023-02-16T18:30:06.478Z,215.77
2023-02-16T18:32:34.642Z,219.73
2023-02-16T18:35:02.522Z,232.98
2023-02-16T18:37:30.564Z,215.82
2023-02-16T18:39:58.419Z,223.05
2023-02-16T18:42:26.596Z,223.07
2023-02-16T18:44:54.498Z,206.57
2023-02-16T18:47:23.526Z,212.57
2023-02-16T18:49:52.647Z,216.55
2023-02-16T18:52:20.758Z,235.82
2023-02-16T18:54:49.016Z,221.20
2023-02-16T18:57:17.600Z,209.98
2023-02-16T18:59:45.573Z,218.88
2023-02-16T19:02:13.748Z,206.50
2023-02-16T19:04:41.606Z,220.10
2023-02-16T19:07:10.118Z,216.00
2023-02-16T19:09:38.606Z,216.73
2023-02-16T19:12:06.826Z,225.15
2023-02-16T19:14:34.861Z,214.38
2023-02-16T19:17:02.641Z,218.48
2023-02-16T19:19:31.103Z,228.15
2023-02-16T19:21:59.089Z,209.57
2023-02-16T19:24:27.286Z,221.38
2023-02-16T19:26:55.090Z,218.98
2023-02-16T19:29:23.569Z,209.32
2023-02-16T19:31:51.342Z,204.77
2023-02-16T19:34:19.567Z,214.38
2023-02-16T19:36:47.364Z,210.77
2023-02-16T19:39:15.673Z,217.13
2023-02-16T19:41:44.133Z,218.18
2023-02-16T19:44:14.293Z,211.48
2023-02-16T19:46:42.610Z,215.98
2023-02-16T19:49:15.417Z,225.15
2023-02-16T19:51:44.268Z,207.55
2023-02-16T19:54:13.522Z,215.27
2023-02-16T19:56:41.538Z,204.82
2023-02-16T19:59:10.082Z,208.18
2023-02-16T20:01:38.043Z,211.73
2023-02-16T20:04:06.398Z,219.93
2023-02-16T20:06:41.354Z,211.77
2023-02-16T20:09:12.672Z,207.32
2023-02-16T20:11:41.039Z,211.98
2023-02-16T20:14:10.868Z,219.43
2023-02-16T20:16:39.729Z,215.88
2023-02-16T20:19:08.229Z,231.32
2023-02-16T20:21:36.188Z,209.82
2023-02-16T20:24:06.043Z,205.70
2023-02-16T20:26:37.969Z,205.90
2023-02-16T20:29:08.462Z,199.20
2023-02-16T20:31:39.207Z,207.38
2023-02-16T20:34:09.396Z,196.80
2023-02-16T20:36:37.590Z,198.50
2023-02-16T20:39:07.716Z,184.73
2023-02-16T20:41:35.831Z,188.00
2023-02-16T20:44:05.081Z,196.63
2023-02-16T20:46:33.650Z,210.15
2023-02-16T20:49:03.637Z,204.98
2023-02-16T20:51:31.998Z,215.90
2023-02-16T20:54:01.799Z,207.77
2023-02-16T20:56:30.415Z,202.05
2023-02-16T20:58:59.730Z,201.82
2023-02-16T21:01:37.686Z,199.80
2023-02-16T21:04:08.021Z,205.77
2023-02-16T21:06:37.779Z,198.55
2023-02-16T21:09:08.286Z,195.77
2023-02-16T21:11:38.507Z,195.82
2023-02-16T21:14:10.694Z,190.88
2023-02-16T21:16:39.678Z,203.77
2023-02-16T21:19:20.947Z,187.05
2023-02-16T21:21:51.125Z,211.65
2023-02-16T21:24:19.593Z,177.00
2023-02-16T21:26:49.311Z,186.35
2023-02-16T21:29:17.950Z,182.57
2023-02-16T21:31:46.108Z,183.82
2023-02-16T21:34:16.152Z,188.50
2023-02-16T21:36:44.585Z,201.93
2023-02-16T21:39:13.645Z,210.18
2023-02-16T21:41:41.776Z,192.95
2023-02-16T21:44:15.725Z,179.55
2023-02-16T21:46:46.627Z,187.82
2023-02-16T21:49:17.469Z,200.82
2023-02-16T21:51:46.981Z,185.75
2023-02-16T21:54:18.325Z,194.10
2023-02-16T21:56:51.183Z,193.55
2023-02-16T21:59:22.862Z,203.82
2023-02-16T22:01:51.917Z,193.82
2023-02-16T22:04:22.890Z,201.07
2023-02-16T22:06:51.960Z,196.88
2023-02-16T22:09:23.206Z,183.98
2023-02-16T22:11:51.789Z,188.88
2023-02-16T22:14:20.618Z,195.50
2023-02-16T22:16:48.920Z,194.30
2023-02-16T22:19:18.974Z,204.38
2023-02-16T22:21:48.617Z,200.00
2023-02-16T22:24:18.249Z,193.85
2023-02-16T22:26:48.433Z,204.23
2023-02-16T22:29:17.820Z,194.18
2023-02-16T22:31:48.311Z,200.10
2023-02-16T22:34:19.380Z,202.38
2023-02-16T22:36:48.170Z,190.52
2023-02-16T22:39:18.144Z,198.02
2023-02-16T22:41:46.372Z,206.77
2023-02-16T22:44:15.905Z,202.80
2023-02-16T22:46:44.401Z,200.52
2023-02-16T22:49:13.101Z,207.25
2023-02-16T22:51:41.289Z,200.43
2023-02-16T22:54:09.585Z,192.23
2023-02-16T22:56:37.799Z,204.57
2023-02-16T22:59:06.401Z,207.02
2023-02-16T23:01:34.377Z,212.93
2023-02-16T23:04:02.902Z,201.40
2023-02-16T23:06:33.877Z,196.43
2023-02-16T23:09:06.600Z,205.05
2023-02-16T23:11:36.306Z,203.32
2023-02-16T23:14:05.396Z,194.32
2023-02-16T23:16:33.433Z,196.75
2023-02-16T23:19:01.725Z,199.02
2023-02-16T23:21:32.619Z,204.05
2023-02-16T23:24:00.974Z,210.18
2023-02-16T23:26:31.242Z,204.15
2023-02-16T23:29:01.831Z,189.77
2023-02-16T23:31:34.935Z,197.98
2023-02-16T23:36:33.943Z,192.07
2023-02-16T23:39:04.396Z,200.50
2023-02-16T23:41:32.625Z,199.32
2023-02-16T23:44:01.342Z,201.80
2023-02-16T23:46:29.621Z,194.25
2023-02-16T23:48:58.109Z,204.35
2023-02-16T23:51:26.424Z,205.00
2023-02-16T23:53:55.390Z,206.98
2023-02-16T23:56:27.104Z,193.95
2023-02-16T23:59:00.706Z,200.93
